Time;durP1;ratioP1;P1;durP2;ratioP2;P2;SDS_P1;SDS_P2;PMS_P1;PMS_P2;Temp;Humidity;BMP_temperature;BMP_pressure;BME280_temperature;BME280_humidity;BME280_pressure;Samples;Min_cycle;Max_cycle;Signal;HPM_P1;HPM_P2
2024/04/01 00:00:49;;;;;;;34.63;3.97;;;;;;;16.86;40.60;93977.91;5043686;28;20037;-79
2024/04/01 00:03:14;;;;;;;33.67;4.95;;;;;;;16.69;39.43;93970.94;5043578;28;20017;-78
2024/04/01 00:05:39;;;;;;;25.15;4.72;;;;;;;16.59;39.15;93984.94;5043977;28;20029;-79
2024/04/01 00:08:05;;;;;;;24.73;4.47;;;;;;;16.48;39.15;93968.50;5043945;28;20037;-79
2024/04/01 00:10:30;;;;;;;27.70;3.78;;;;;;;16.53;39.03;93962.13;5043694;28;20251;-79
2024/04/01 00:12:59;;;;;;;29.85;3.33;;;;;;;16.57;38.98;93974.50;5043714;28;20125;-78
2024/04/01 00:15:27;;;;;;;34.17;4.40;;;;;;;16.63;39.27;93966.97;5043553;28;20265;-79
2024/04/01 00:17:52;;;;;;;45.17;4.55;;;;;;;16.63;38.79;93958.91;5042442;28;20307;-80
2024/04/01 00:20:18;;;;;;;29.83;4.93;;;;;;;16.61;38.84;93967.31;5043415;28;20025;-80
2024/04/01 00:22:43;;;;;;;20.15;3.95;;;;;;;16.54;38.90;93961.75;5043499;28;20025;-80
2024/04/01 00:25:09;;;;;;;31.30;4.75;;;;;;;16.55;38.84;93952.56;5043240;28;20022;-79
2024/04/01 00:27:35;;;;;;;30.17;4.97;;;;;;;16.54;38.96;93955.59;5043686;28;20092;-80
2024/04/01 00:30:01;;;;;;;29.48;4.05;;;;;;;16.53;38.80;93944.06;5043453;28;20029;-80
2024/04/01 00:32:26;;;;;;;24.05;4.97;;;;;;;16.51;39.17;93965.13;5042241;28;20082;-80
2024/04/01 00:34:52;;;;;;;27.02;4.35;;;;;;;16.43;39.31;93950.72;5042011;28;20045;-80
2024/04/01 00:37:17;;;;;;;19.98;3.53;;;;;;;16.34;39.75;93957.41;5043454;28;20048;-80
2024/04/01 00:39:43;;;;;;;31.88;4.95;;;;;;;16.28;39.84;93951.50;5042106;28;20306;-80
2024/04/01 00:42:08;;;;;;;32.58;4.03;;;;;;;16.27;40.13;93959.94;5043329;28;20092;-80
2024/04/01 00:44:33;;;;;;;29.27;4.28;;;;;;;16.23;39.99;93957.16;5043165;28;20148;-80
2024/04/01 00:46:59;;;;;;;41.08;4.85;;;;;;;16.19;40.06;93957.06;5043017;28;20298;-80
2024/04/01 00:49:25;;;;;;;22.38;4.75;;;;;;;16.15;40.75;93961.56;5043162;28;20067;-81
2024/04/01 00:51:54;;;;;;;29.77;5.10;;;;;;;16.11;40.82;93952.63;5043311;28;20032;-81
2024/04/01 00:54:20;;;;;;;26.50;4.70;;;;;;;16.05;41.90;93956.69;5043089;28;20029;-78
2024/04/01 00:56:48;;;;;;;31.75;4.65;;;;;;;15.93;41.36;93957.53;5043171;28;20172;-77
2024/04/01 00:59:16;;;;;;;20.13;4.90;;;;;;;15.87;41.94;93953.53;5042726;28;20028;-77
2024/04/01 01:01:44;;;;;;;37.45;4.50;;;;;;;15.80;42.40;93956.03;5042642;28;20215;-77
2024/04/01 01:04:09;;;;;;;45.47;4.65;;;;;;;15.76;42.16;93961.31;5042803;28;20360;-78
2024/04/01 01:06:37;;;;;;;28.55;3.72;;;;;;;15.70;42.25;93961.88;5042967;28;20021;-78
2024/04/01 01:09:03;;;;;;;25.63;4.10;;;;;;;15.68;42.19;93959.53;5042831;28;20051;-78
2024/04/01 01:11:29;;;;;;;33.10;4.35;;;;;;;15.68;42.39;93954.16;5042507;28;20025;-78
2024/04/01 01:13:54;;;;;;;31.63;5.28;;;;;;;15.75;42.25;93959.75;5042654;28;20060;-81
2024/04/01 01:16:20;;;;;;;27.33;3.65;;;;;;;15.80;41.87;93959.50;5042613;28;20021;-81
2024/04/01 01:18:45;;;;;;;14.18;3.40;;;;;;;15.78;42.48;93964.44;5042803;28;20250;-81
2024/04/01 01:21:11;;;;;;;21.38;4.43;;;;;;;15.80;42.58;93938.00;5042611;28;20026;-80
2024/04/01 01:23:36;;;;;;;25.92;3.75;;;;;;;15.84;42.83;93957.69;5042765;28;20096;-81
2024/04/01 01:26:02;;;;;;;23.92;4.07;;;;;;;15.78;42.87;93950.22;5042594;28;20021;-80
2024/04/01 01:28:30;;;;;;;23.88;3.17;;;;;;;15.80;42.68;93938.00;5042560;28;20036;-80
2024/04/01 01:30:55;;;;;;;18.48;4.90;;;;;;;15.86;42.67;93949.28;5042610;28;20021;-80
2024/04/01 01:33:22;;;;;;;21.17;3.47;;;;;;;15.91;42.40;93940.19;5042044;28;20155;-80
2024/04/01 01:35:47;;;;;;;30.08;4.10;;;;;;;15.97;42.24;93950.34;5041845;28;20021;-80
2024/04/01 01:38:14;;;;;;;18.17;3.20;;;;;;;16.00;41.99;93946.19;5074429;28;20323;-80
2024/04/01 01:40:40;;;;;;;40.38;4.35;;;;;;;16.02;42.28;93931.28;5042213;28;20029;-80
2024/04/01 01:43:05;;;;;;;28.63;3.67;;;;;;;16.08;42.38;93925.63;5042293;28;20338;-80
2024/04/01 01:45:31;;;;;;;26.65;3.67;;;;;;;16.09;42.21;93944.13;5042080;28;20021;-80
2024/04/01 01:47:56;;;;;;;17.95;4.75;;;;;;;16.04;41.96;93939.00;5041993;28;20243;-79
2024/04/01 01:50:22;;;;;;;23.02;4.75;;;;;;;16.07;42.20;93932.94;5042027;28;20041;-80
2024/04/01 01:52:47;;;;;;;14.93;3.90;;;;;;;16.09;42.78;93933.38;5042131;28;20041;-80
2024/04/01 01:55:13;;;;;;;22.23;4.35;;;;;;;16.09;43.11;93929.91;5042220;28;20032;-80
2024/04/01 01:57:38;;;;;;;24.35;5.20;;;;;;;16.07;42.61;93941.00;5040817;28;20097;-79
2024/04/01 02:00:05;;;;;;;15.88;2.65;;;;;;;16.07;42.60;93922.19;5042082;28;20030;-80
2024/04/01 02:02:32;;;;;;;12.40;3.35;;;;;;;16.04;42.71;93915.59;5041955;28;20017;-80
2024/04/01 02:04:58;;;;;;;22.25;3.60;;;;;;;16.08;41.30;93909.50;5041968;28;20036;-80
2024/04/01 02:07:23;;;;;;;26.98;3.05;;;;;;;16.11;40.86;93922.28;5041894;28;20021;-79
2024/04/01 02:09:49;;;;;;;21.08;3.47;;;;;;;16.16;41.18;93920.13;5040569;28;20083;-79
2024/04/01 02:12:14;;;;;;;30.95;4.07;;;;;;;16.16;41.42;93903.97;5041799;28;20025;-79
2024/04/01 02:14:40;;;;;;;23.73;3.63;;;;;;;16.21;41.39;93927.13;5041754;28;20251;-79
2024/04/01 02:17:07;;;;;;;27.38;3.78;;;;;;;16.22;41.26;93924.09;5041956;28;20089;-81
2024/04/01 02:19:33;;;;;;;19.38;3.10;;;;;;;16.17;41.33;93927.03;5040055;28;20021;-81
2024/04/01 02:21:59;;;;;;;19.95;3.83;;;;;;;16.14;41.07;93943.88;5040364;28;20029;-79
2024/04/01 02:24:25;;;;;;;13.40;2.78;;;;;;;16.08;41.66;93933.69;5041610;28;20083;-80
2024/04/01 02:26:54;;;;;;;21.23;5.18;;;;;;;15.95;41.95;93941.84;5040220;28;20025;-80
2024/04/01 02:29:20;;;;;;;35.28;5.32;;;;;;;15.86;41.95;93933.16;5040793;28;20021;-80
2024/04/01 02:31:45;;;;;;;16.88;2.83;;;;;;;15.82;42.47;93933.06;5041855;28;20018;-79
2024/04/01 02:34:11;;;;;;;22.45;3.55;;;;;;;15.73;42.35;93951.25;5040764;28;20053;-75
2024/04/01 02:36:36;;;;;;;18.55;3.22;;;;;;;15.68;42.76;93938.03;5041285;28;20025;-77
2024/04/01 02:39:05;;;;;;;31.08;3.97;;;;;;;15.59;43.32;93940.06;5041583;28;20048;-77
2024/04/01 02:41:31;;;;;;;21.85;4.18;;;;;;;15.55;42.97;93944.56;5041264;28;20037;-76
2024/04/01 02:43:57;;;;;;;28.92;3.78;;;;;;;15.51;43.05;93947.19;5041490;28;20059;-76
2024/04/01 02:46:22;;;;;;;21.58;3.58;;;;;;;15.51;43.44;93947.19;5042054;28;20180;-76
2024/04/01 02:48:48;;;;;;;23.40;3.42;;;;;;;15.52;42.95;93956.78;5045408;28;20308;-78
2024/04/01 02:51:13;;;;;;;30.75;3.92;;;;;;;15.45;42.02;93954.69;5044479;28;20050;-78
2024/04/01 02:53:38;;;;;;;20.90;4.38;;;;;;;15.39;42.17;93950.69;5045183;28;20029;-77
2024/04/01 02:56:06;;;;;;;18.73;4.32;;;;;;;15.37;42.89;93944.09;5045328;28;20602;-77
2024/04/01 02:58:32;;;;;;;23.00;3.85;;;;;;;15.33;42.87;93943.22;5045165;28;20032;-75
2024/04/01 03:01:06;;;;;;;25.80;3.90;;;;;;;15.28;43.81;93944.22;5044787;28;20406;-75
2024/04/01 03:03:31;;;;;;;23.35;3.85;;;;;;;15.22;43.86;93932.94;5044992;28;20275;-74
2024/04/01 03:05:57;;;;;;;24.60;2.78;;;;;;;15.23;44.12;93944.47;5044757;28;20036;-74
2024/04/01 03:08:23;;;;;;;25.00;3.97;;;;;;;15.20;43.99;93943.25;5044603;28;20068;-74
2024/04/01 03:10:48;;;;;;;19.10;2.97;;;;;;;15.18;44.50;93942.00;5044568;28;20021;-74
2024/04/01 03:13:13;;;;;;;21.60;2.80;;;;;;;15.24;44.33;93936.09;5044713;28;20021;-74
2024/04/01 03:15:39;;;;;;;23.25;3.33;;;;;;;15.19;43.58;93924.78;5044655;28;20053;-74
2024/04/01 03:18:05;;;;;;;33.50;4.82;;;;;;;15.20;43.43;93937.06;5044635;28;20021;-73
2024/04/01 03:20:32;;;;;;;22.23;3.00;;;;;;;15.22;43.23;93937.53;5044397;28;20029;-73
2024/04/01 03:22:57;;;;;;;27.88;4.18;;;;;;;15.31;42.66;93929.34;5044483;28;20029;-73
2024/04/01 03:25:22;;;;;;;17.27;2.63;;;;;;;15.41;42.63;93939.59;5044595;28;20029;-74
2024/04/01 03:27:48;;;;;;;28.95;3.58;;;;;;;15.44;42.19;93928.16;5044445;28;20120;-76
2024/04/01 03:30:13;;;;;;;19.25;3.30;;;;;;;15.51;42.17;93939.13;5044465;28;20033;-76
2024/04/01 03:32:39;;;;;;;23.88;3.03;;;;;;;15.51;42.19;93927.56;5044209;28;20258;-76
2024/04/01 03:35:04;;;;;;;26.98;2.85;;;;;;;15.58;42.03;93927.78;5044216;28;20045;-77
2024/04/01 03:37:30;;;;;;;35.20;4.28;;;;;;;15.62;41.80;93934.03;5044013;28;20088;-77
2024/04/01 03:39:56;;;;;;;14.40;3.50;;;;;;;15.68;41.44;93921.91;5044165;28;20294;-75
2024/04/01 03:42:22;;;;;;;20.67;2.60;;;;;;;15.69;41.92;93936.13;5043811;28;20018;-78
2024/04/01 03:44:52;;;;;;;24.20;3.63;;;;;;;15.68;42.01;93921.91;5044224;28;20041;-79
2024/04/01 03:47:18;;;;;;;30.90;4.13;;;;;;;15.70;41.46;93932.31;5043851;28;20361;-78
2024/04/01 03:49:44;;;;;;;31.17;3.15;;;;;;;15.70;41.36;93933.09;5044096;28;20021;-79
2024/04/01 03:52:09;;;;;;;23.38;4.35;;;;;;;15.77;41.27;93930.66;5043828;28;20044;-78
2024/04/01 03:54:35;;;;;;;21.27;3.17;;;;;;;15.77;41.27;93929.84;5043890;28;20017;-78
2024/04/01 03:57:01;;;;;;;19.00;2.83;;;;;;;15.73;41.38;93929.75;5043243;28;20025;-78
2024/04/01 03:59:26;;;;;;;32.70;4.30;;;;;;;15.57;42.78;93955.75;5043834;28;20031;-78
2024/04/01 04:01:52;;;;;;;24.90;2.95;;;;;;;15.41;43.12;93951.13;5043573;28;20331;-78
2024/04/01 04:04:18;;;;;;;21.55;3.90;;;;;;;15.28;43.43;93954.97;5043621;28;20048;-78
2024/04/01 04:06:44;;;;;;;37.35;4.07;;;;;;;15.17;44.05;93951.97;5043282;28;20026;-78
2024/04/01 04:09:15;;;;;;;22.85;4.22;;;;;;;15.12;44.23;93959.47;5043624;28;20025;-78
2024/04/01 04:11:49;;;;;;;22.13;4.67;;;;;;;14.93;43.83;93943.97;5043657;28;20220;-78
2024/04/01 04:14:17;;;;;;;21.67;4.25;;;;;;;14.85;44.96;93967.13;5043254;28;20287;-78
2024/04/01 04:16:44;;;;;;;28.98;3.72;;;;;;;14.77;45.32;93959.97;5043421;28;20022;-78
2024/04/01 04:19:10;;;;;;;26.40;5.28;;;;;;;14.67;45.80;93966.56;5042663;28;20017;-77
2024/04/01 04:21:36;;;;;;;16.80;3.00;;;;;;;14.62;45.78;93972.16;5042293;28;20025;-75
2024/04/01 04:24:01;;;;;;;26.13;3.72;;;;;;;14.57;45.81;93961.66;5042103;28;20028;-76
2024/04/01 04:26:27;;;;;;;28.05;3.75;;;;;;;14.57;46.79;93975.06;5041892;28;20053;-76
2024/04/01 04:28:52;;;;;;;24.15;3.20;;;;;;;14.50;46.27;93969.44;5042219;28;20035;-76
2024/04/01 04:31:17;;;;;;;30.92;3.38;;;;;;;14.50;46.26;93978.28;5043310;28;20330;-77
2024/04/01 04:33:43;;;;;;;33.72;4.65;;;;;;;14.50;45.96;93978.28;5042976;28;20038;-78
2024/04/01 04:36:09;;;;;;;21.02;3.60;;;;;;;14.50;45.64;93972.13;5043241;28;20044;-78
2024/04/01 04:38:34;;;;;;;18.38;3.47;;;;;;;14.58;45.81;93980.09;5043405;28;20032;-78
2024/04/01 04:41:00;;;;;;;21.05;5.22;;;;;;;14.58;45.73;93969.38;5042954;28;20029;-78
2024/04/01 04:43:25;;;;;;;21.58;3.60;;;;;;;14.61;45.74;93976.75;5042910;28;20243;-78
2024/04/01 04:45:50;;;;;;;22.90;4.30;;;;;;;14.62;46.02;93975.63;5042199;28;20071;-78
2024/04/01 04:48:16;;;;;;;23.00;4.97;;;;;;;14.59;45.81;93981.69;5042713;28;20251;-78
2024/04/01 04:50:41;;;;;;;39.58;4.57;;;;;;;14.63;45.98;93965.66;5042951;28;20028;-77
2024/04/01 04:53:06;;;;;;;21.90;4.43;;;;;;;14.70;45.99;93973.19;5042709;28;20048;-77
2024/04/01 04:55:32;;;;;;;37.80;5.75;;;;;;;14.74;46.48;93979.44;5042854;28;20059;-78
2024/04/01 04:57:58;;;;;;;39.47;5.30;;;;;;;14.78;45.95;93972.28;5042748;28;20415;-78
2024/04/01 05:00:23;;;;;;;34.17;3.60;;;;;;;14.89;46.07;93983.34;5042709;28;20022;-77
2024/04/01 05:02:51;;;;;;;33.45;3.97;;;;;;;14.91;46.06;93973.81;5042883;28;20022;-81
2024/04/01 05:05:20;;;;;;;35.65;6.05;;;;;;;14.94;45.11;93986.56;5043268;28;20021;-80
2024/04/01 05:07:48;;;;;;;35.80;5.10;;;;;;;15.04;46.21;93980.75;5042680;28;20104;-75
2024/04/01 05:10:14;;;;;;;23.83;4.25;;;;;;;15.09;45.56;93973.59;5041805;28;20153;-77
2024/04/01 05:12:40;;;;;;;24.35;3.90;;;;;;;15.17;45.27;93981.50;5042312;28;20021;-78
2024/04/01 05:15:06;;;;;;;28.98;3.55;;;;;;;15.21;44.13;93977.03;5042719;28;20353;-76
2024/04/01 05:17:34;;;;;;;22.13;3.90;;;;;;;15.30;43.74;93981.47;5042449;28;20040;-77
2024/04/01 05:20:00;;;;;;;33.88;4.43;;;;;;;15.37;43.79;93992.44;5040228;28;20045;-79
2024/04/01 05:22:26;;;;;;;24.90;3.10;;;;;;;15.41;43.68;93994.09;5039877;28;20065;-77
2024/04/01 05:24:51;;;;;;;31.60;3.70;;;;;;;15.47;43.30;93988.47;5041521;28;20083;-77
2024/04/01 05:27:17;;;;;;;32.28;4.70;;;;;;;15.57;42.85;93982.63;5041543;28;20315;-76
2024/04/01 05:29:42;;;;;;;24.20;4.15;;;;;;;15.68;42.43;93986.41;5039737;28;20028;-77
2024/04/01 05:32:08;;;;;;;36.08;5.10;;;;;;;15.78;42.41;93991.31;5040537;28;20029;-77
2024/04/01 05:34:37;;;;;;;28.80;4.40;;;;;;;15.89;42.97;93982.75;5040770;28;20071;-77
2024/04/01 05:37:05;;;;;;;26.70;3.92;;;;;;;15.99;43.69;93984.94;5040697;28;20017;-77
2024/04/01 05:39:31;;;;;;;32.60;5.05;;;;;;;16.07;43.97;93986.69;5040650;28;20096;-77
2024/04/01 05:41:57;;;;;;;29.58;4.50;;;;;;;16.15;43.00;93975.00;5041182;28;20021;-77
2024/04/01 05:44:22;;;;;;;32.38;6.43;;;;;;;16.23;42.07;93976.75;5042224;28;20169;-78
2024/04/01 05:46:47;;;;;;;28.08;7.72;;;;;;;16.37;41.91;93967.50;5041187;28;20089;-78
2024/04/01 05:49:13;;;;;;;38.00;3.97;;;;;;;16.46;41.62;93978.84;5042000;28;20116;-78
2024/04/01 05:51:38;;;;;;;23.42;3.42;;;;;;;16.55;41.07;93963.31;5042117;28;20234;-78
2024/04/01 05:54:03;;;;;;;27.63;3.45;;;;;;;16.67;40.89;93975.09;5040996;28;20026;-78
2024/04/01 05:56:29;;;;;;;26.70;3.70;;;;;;;16.77;40.86;93966.50;5042232;28;20104;-77
2024/04/01 05:58:54;;;;;;;28.63;4.00;;;;;;;16.87;40.31;93971.38;5041940;28;20025;-77
2024/04/01 06:01:20;;;;;;;36.25;3.78;;;;;;;17.01;40.30;93984.38;5041923;28;20029;-78
2024/04/01 06:03:45;;;;;;;22.65;4.20;;;;;;;17.14;39.90;93983.16;5042082;28;20053;-77
2024/04/01 06:06:11;;;;;;;24.13;3.63;;;;;;;17.27;39.62;93991.13;5041974;28;20033;-77
2024/04/01 06:08:36;;;;;;;28.10;4.57;;;;;;;17.39;39.41;93991.00;5042135;28;20214;-76
2024/04/01 06:11:01;;;;;;;26.70;5.40;;;;;;;17.53;39.03;93987.81;5041864;28;20036;-76
2024/04/01 06:13:27;;;;;;;43.97;4.90;;;;;;;17.62;38.43;93986.47;5041778;28;20049;-76
2024/04/01 06:15:52;;;;;;;26.92;4.68;;;;;;;17.72;38.75;93987.81;5041703;28;20097;-77
2024/04/01 06:18:18;;;;;;;26.23;4.00;;;;;;;17.81;38.19;93984.94;5041694;28;20064;-76
2024/04/01 06:20:44;;;;;;;33.47;3.63;;;;;;;17.91;38.07;93994.38;5042482;28;20033;-77
2024/04/01 06:23:09;;;;;;;31.08;4.65;;;;;;;17.97;37.49;93991.03;5044315;28;20029;-76
2024/04/01 06:25:43;;;;;;;27.60;3.95;;;;;;;18.09;37.08;93989.31;5044623;28;20033;-76
2024/04/01 06:28:08;;;;;;;19.95;3.30;;;;;;;18.16;37.21;93981.38;5045363;28;20033;-76
2024/04/01 06:30:34;;;;;;;18.33;3.97;;;;;;;18.23;36.68;93982.25;5045087;28;20067;-76
2024/04/01 06:33:00;;;;;;;19.42;4.03;;;;;;;18.35;36.68;93972.44;5045208;28;20082;-74
2024/04/01 06:35:26;;;;;;;23.25;3.88;;;;;;;18.42;36.38;93981.44;5045417;28;20069;-77
2024/04/01 06:37:51;;;;;;;25.98;4.25;;;;;;;18.51;36.12;93981.19;5045343;28;20029;-77
2024/04/01 06:40:17;;;;;;;29.85;4.20;;;;;;;18.54;36.22;93977.78;5045231;28;20025;-77
2024/04/01 06:42:42;;;;;;;23.08;3.97;;;;;;;18.61;35.89;93985.22;5045215;28;20268;-77
2024/04/01 06:45:08;;;;;;;29.10;4.03;;;;;;;18.63;35.58;93978.31;5044951;28;20227;-77
2024/04/01 06:47:33;;;;;;;48.22;8.77;;;;;;;18.70;35.77;93987.66;5045221;28;20194;-77
2024/04/01 06:49:59;;;;;;;21.10;3.85;;;;;;;18.79;35.15;93980.13;5045164;28;20100;-77
2024/04/01 06:52:24;;;;;;;30.85;4.05;;;;;;;18.83;35.25;93981.75;5044932;28;20021;-77
2024/04/01 06:54:50;;;;;;;27.17;6.18;;;;;;;18.92;35.46;93978.78;5045111;28;20052;-77
2024/04/01 06:57:16;;;;;;;27.48;4.47;;;;;;;19.01;35.75;93982.03;5045177;28;20036;-77
2024/04/01 06:59:41;;;;;;;33.95;4.78;;;;;;;19.06;35.73;93982.84;5045074;28;20267;-77
2024/04/01 07:02:07;;;;;;;41.05;4.63;;;;;;;19.14;35.96;93984.50;5044782;28;20049;-70
2024/04/01 07:36:19;;;;;;;25.48;5.63;;;;;;;19.94;35.25;93992.53;4589174;31;20144;-75
2024/04/01 07:38:44;;;;;;;35.08;5.40;;;;;;;19.96;35.24;94001.03;4601614;31;20058;-74
2024/04/01 07:41:10;;;;;;;28.75;4.63;;;;;;;20.04;34.16;93997.28;4615703;30;20520;-74
2024/04/01 07:43:35;;;;;;;33.17;5.72;;;;;;;20.11;33.57;93994.66;4708458;30;20177;-74
2024/04/01 07:46:00;;;;;;;42.22;4.82;;;;;;;20.17;33.18;94008.63;4708305;30;20100;-74
2024/04/01 07:48:26;;;;;;;19.63;3.92;;;;;;;20.23;33.22;94007.13;4708314;30;20116;-74
2024/04/01 07:50:52;;;;;;;41.63;6.10;;;;;;;20.31;33.19;94008.00;4708129;30;20291;-73
2024/04/01 07:53:17;;;;;;;30.38;4.88;;;;;;;20.40;33.45;94013.91;4708254;30;20251;-73
2024/04/01 07:55:42;;;;;;;19.30;4.28;;;;;;;20.45;33.59;94005.44;4731600;30;20043;-73
2024/04/01 07:58:08;;;;;;;25.77;3.00;;;;;;;20.51;33.10;94009.34;4765423;30;20266;-73
2024/04/01 08:00:36;;;;;;;28.33;5.05;;;;;;;20.60;32.73;94004.44;4777527;29;20304;-73
2024/04/01 08:03:01;;;;;;;21.65;3.63;;;;;;;20.68;32.61;94002.59;4840166;29;20041;-74
2024/04/01 08:05:27;;;;;;;35.72;4.63;;;;;;;20.70;32.97;93996.78;4870830;29;20196;-73
2024/04/01 08:07:52;;;;;;;38.10;4.15;;;;;;;20.76;32.46;93993.38;4888163;29;20120;-81
2024/04/01 08:10:18;;;;;;;18.05;4.50;;;;;;;20.79;32.78;93999.97;4953468;29;20260;-78
2024/04/01 08:12:43;;;;;;;41.40;4.53;;;;;;;20.96;32.82;93985.00;4984165;28;20034;-77
2024/04/01 08:15:09;;;;;;;24.45;3.78;;;;;;;21.02;32.40;93978.88;5004590;28;20075;-77
2024/04/01 08:17:34;;;;;;;27.73;3.80;;;;;;;21.07;32.44;93988.56;5004747;28;20018;-77
2024/04/01 08:19:59;;;;;;;28.65;3.92;;;;;;;21.19;32.10;93982.84;5004759;28;20320;-77
2024/04/01 08:22:25;;;;;;;30.60;3.97;;;;;;;21.31;31.16;93984.47;5004267;28;20018;-77
2024/04/01 08:24:50;;;;;;;25.30;3.50;;;;;;;21.40;31.18;93978.72;5004629;28;20029;-77
2024/04/01 08:27:16;;;;;;;39.65;7.53;;;;;;;21.46;30.77;93979.94;5004634;28;20036;-78
2024/04/01 08:29:42;;;;;;;28.48;6.03;;;;;;;21.55;31.63;93985.00;5004477;28;20193;-78
2024/04/01 08:32:08;;;;;;;32.85;4.22;;;;;;;21.62;31.15;93987.78;5004431;28;20025;-78
2024/04/01 08:34:33;;;;;;;32.20;4.50;;;;;;;21.72;31.47;93976.19;5004294;28;20080;-78
2024/04/01 08:36:59;;;;;;;25.33;5.13;;;;;;;21.78;30.93;93977.38;5038100;28;20037;-78
2024/04/01 08:39:24;;;;;;;24.30;4.22;;;;;;;21.91;30.65;93979.75;5043598;28;20021;-78
2024/04/01 08:41:54;;;;;;;34.40;4.72;;;;;;;22.00;30.73;93972.03;5043461;28;20029;-78
2024/04/01 08:44:20;;;;;;;59.20;6.85;;;;;;;22.09;30.09;93969.72;5043513;28;20037;-80
2024/04/01 08:46:50;;;;;;;29.15;5.03;;;;;;;22.12;29.57;93970.91;5043467;28;20367;-78
2024/04/01 08:49:25;;;;;;;33.00;4.80;;;;;;;22.17;30.15;93968.59;5042976;28;20029;-78
2024/04/01 08:51:53;;;;;;;28.00;4.38;;;;;;;22.27;30.66;93971.72;5043082;28;20040;-79
2024/04/01 08:54:19;;;;;;;25.35;4.32;;;;;;;22.34;30.20;93967.09;5042526;28;20130;-78
2024/04/01 08:56:45;;;;;;;32.22;4.68;;;;;;;22.42;29.20;93967.91;5041960;28;20250;-79
2024/04/01 08:59:10;;;;;;;32.28;6.03;;;;;;;22.50;29.09;93953.16;5043047;28;20066;-77
2024/04/01 09:01:36;;;;;;;39.83;6.35;;;;;;;22.56;29.12;93951.63;5043137;28;20029;-78
2024/04/01 09:04:03;;;;;;;25.45;4.55;;;;;;;22.65;29.58;93945.78;5043029;28;20272;-78
2024/04/01 09:06:29;;;;;;;39.92;6.90;;;;;;;22.73;29.47;93938.41;5043191;28;20048;-78
2024/04/01 09:08:55;;;;;;;54.42;5.63;;;;;;;22.83;29.04;93937.63;5042676;28;20032;-77
2024/04/01 09:11:25;;;;;;;32.85;3.80;;;;;;;22.92;28.68;93924.44;5042894;28;20342;-78
2024/04/01 09:13:51;;;;;;;44.60;5.50;;;;;;;23.01;28.32;93919.41;5042673;28;20067;-77
2024/04/01 09:16:20;;;;;;;29.13;6.07;;;;;;;23.07;27.92;93919.03;5042533;28;20021;-76
2024/04/01 09:18:46;;;;;;;38.67;5.97;;;;;;;23.09;28.12;93916.69;5042652;28;20017;-77
2024/04/01 09:21:12;;;;;;;39.05;6.13;;;;;;;23.13;28.28;93912.03;5042408;28;20032;-76
2024/04/01 09:23:43;;;;;;;41.55;6.57;;;;;;;23.25;27.92;93913.56;5042712;28;20029;-77
2024/04/01 09:26:10;;;;;;;22.60;4.85;;;;;;;23.33;28.03;93915.84;5041201;28;20049;-77
2024/04/01 09:28:35;;;;;;;29.23;5.50;;;;;;;23.42;28.16;93910.75;5042663;28;20037;-76
2024/04/01 09:31:01;;;;;;;37.75;6.68;;;;;;;23.52;26.94;93905.69;5042321;28;20036;-77
2024/04/01 09:33:28;;;;;;;34.72;5.30;;;;;;;23.53;26.56;93893.63;5042391;28;20029;-78
2024/04/01 09:35:54;;;;;;;39.28;6.13;;;;;;;23.58;27.11;93894.00;5041864;28;20116;-77
2024/04/01 09:38:20;;;;;;;42.55;6.00;;;;;;;23.64;26.37;93902.53;5042186;28;20324;-77
2024/04/01 09:40:52;;;;;;;38.10;4.88;;;;;;;23.64;26.09;93902.53;5041787;28;20100;-78
2024/04/01 09:43:29;;;;;;;23.00;4.63;;;;;;;23.75;26.42;93897.81;5041913;28;20262;-77
2024/04/01 09:45:56;;;;;;;40.15;5.38;;;;;;;23.87;26.56;93895.84;5042309;28;20053;-77
2024/04/01 09:48:22;;;;;;;47.58;6.15;;;;;;;23.96;26.40;93890.75;5042570;28;20080;-78
2024/04/01 09:50:49;;;;;;;28.15;6.57;;;;;;;23.96;26.26;93886.06;5042257;28;20092;-76
2024/04/01 09:53:15;;;;;;;35.20;5.53;;;;;;;23.83;26.17;93888.47;5042851;28;20036;-76
2024/04/01 09:56:19;;;;;;;41.40;6.13;;;;;;;23.97;24.71;93887.59;5043942;28;20025;-77
2024/04/01 09:59:17;;;;;;;41.15;6.75;;;;;;;24.09;25.19;93872.00;5045794;28;20108;-77
2024/04/01 10:01:43;;;;;;;45.72;6.53;;;;;;;24.24;25.35;93884.31;5047124;28;20057;-77
2024/04/01 10:04:46;;;;;;;40.85;5.18;;;;;;;24.37;24.44;93876.47;5046700;28;20232;-77
2024/04/01 10:07:42;;;;;;;49.47;7.40;;;;;;;24.45;23.53;93882.66;5046471;28;20025;-85
2024/04/01 10:10:30;;;;;;;54.90;7.50;;;;;;;24.56;23.96;93873.22;5046221;28;20026;-80
2024/04/01 10:13:37;;;;;;;40.72;6.53;;;;;;;24.87;24.33;93872.56;5045487;28;20446;-80
2024/04/01 10:16:27;;;;;;;41.17;6.30;;;;;;;25.16;24.13;93862.16;5045213;28;20029;-80
2024/04/01 10:19:04;;;;;;;58.72;6.50;;;;;;;25.38;23.48;93871.69;5045490;28;20021;-81
2024/04/01 10:21:54;;;;;;;40.70;6.20;;;;;;;25.55;23.01;93852.78;5043845;28;20044;-80
2024/04/01 10:24:55;;;;;;;46.55;7.70;;;;;;;25.80;22.41;93850.47;5043706;28;20021;-79
2024/04/01 10:27:36;;;;;;;51.95;9.10;;;;;;;25.99;22.37;93849.09;5042840;28;20033;-80
2024/04/01 10:30:20;;;;;;;48.65;8.15;;;;;;;26.17;21.71;93843.34;5044189;28;20219;-80
2024/04/01 10:33:23;;;;;;;66.55;8.27;;;;;;;26.22;19.70;93837.44;5044983;28;20315;-80
2024/04/01 10:36:11;;;;;;;70.82;9.75;;;;;;;26.37;20.13;93839.94;5023313;28;20328;-80
2024/04/01 10:38:51;;;;;;;57.63;9.90;;;;;;;26.59;19.88;93835.69;5044475;28;20095;-80
2024/04/01 10:41:31;;;;;;;47.20;6.93;;;;;;;26.67;20.78;93835.59;5045305;28;20045;-80
2024/04/01 10:44:15;;;;;;;56.53;8.25;;;;;;;26.69;20.31;93833.97;5045044;28;20021;-80
2024/04/01 10:47:28;;;;;;;50.40;7.47;;;;;;;26.88;18.70;93828.97;5045237;28;20021;-80
2024/04/01 10:49:53;;;;;;;61.35;9.45;;;;;;;26.90;17.80;93821.88;5028867;28;20108;-80
2024/04/01 10:52:51;;;;;;;61.83;8.48;;;;;;;27.01;19.07;93808.78;5045069;28;20029;-80
2024/04/01 10:55:35;;;;;;;36.42;8.15;;;;;;;27.17;20.29;93821.00;5044877;28;20025;-80
2024/04/01 10:58:13;;;;;;;70.38;10.73;;;;;;;27.40;18.99;93817.47;5044992;28;20032;-80
2024/04/01 11:00:49;;;;;;;51.65;10.35;;;;;;;27.62;19.84;93804.09;5045023;28;20021;-80
2024/04/01 11:03:17;;;;;;;69.35;10.63;;;;;;;27.80;17.21;93790.78;5044886;28;20036;-81
2024/04/01 11:06:10;;;;;;;70.80;8.38;;;;;;;27.93;17.59;93788.19;5045020;28;20022;-81
2024/04/01 11:08:52;;;;;;;68.75;10.52;;;;;;;28.01;16.63;93791.53;5043892;28;20413;-81
2024/04/01 11:11:41;;;;;;;64.90;11.55;;;;;;;28.00;14.50;93790.75;5045112;28;20085;-80
2024/04/01 11:14:10;;;;;;;69.07;12.10;;;;;;;28.07;13.98;93789.03;5045007;28;20037;-80
2024/04/01 11:16:38;;;;;;;69.75;10.90;;;;;;;28.18;14.54;93784.09;5045074;28;20052;-80
2024/04/01 11:19:13;;;;;;;64.65;12.25;;;;;;;28.36;15.37;93772.69;5045084;28;20053;-80
2024/04/01 11:21:57;;;;;;;73.47;11.63;;;;;;;28.59;15.39;93772.50;5044722;28;20390;-81
2024/04/01 11:24:25;;;;;;;62.58;9.32;;;;;;;28.87;15.19;93777.69;5044830;28;20028;-80
2024/04/01 11:27:20;;;;;;;78.43;13.30;;;;;;;28.96;13.51;93761.38;5044752;28;20203;-80
2024/04/01 11:30:07;;;;;;;66.45;10.75;;;;;;;29.05;14.01;93750.56;5035827;28;20037;-80
2024/04/01 11:32:35;;;;;;;64.30;11.20;;;;;;;29.14;14.54;93753.44;5044545;28;20320;-80
2024/04/01 11:35:15;;;;;;;64.70;10.65;;;;;;;29.28;15.84;93746.78;5044232;28;20215;-80
2024/04/01 11:37:50;;;;;;;64.70;9.57;;;;;;;29.47;14.89;93755.28;5044550;28;20025;-81
2024/04/01 11:40:29;;;;;;;75.10;10.98;;;;;;;29.56;13.51;93741.66;5044464;28;20029;-76
2024/04/01 11:43:00;;;;;;;52.42;10.32;;;;;;;28.96;12.85;93742.97;5043093;28;20339;-77
2024/04/01 11:45:30;;;;;;;61.75;10.18;;;;;;;28.34;13.76;93755.91;5044264;28;20032;-78
2024/04/01 11:47:56;;;;;;;57.63;10.30;;;;;;;28.16;14.83;93750.88;5044060;28;20029;-77
2024/04/01 11:50:22;;;;;;;52.72;10.02;;;;;;;28.08;13.68;93753.00;5043985;28;20025;-77
2024/04/01 11:53:02;;;;;;;77.30;10.25;;;;;;;28.16;15.71;93739.91;5044011;28;21162;-77
2024/04/01 11:55:28;;;;;;;62.92;9.40;;;;;;;28.32;15.70;93736.38;5044067;28;20036;-78
2024/04/01 11:57:54;;;;;;;62.28;10.00;;;;;;;28.52;13.74;93741.78;5044035;28;20167;-77
2024/04/01 12:00:20;;;;;;;76.13;12.05;;;;;;;28.64;14.64;93730.09;5043612;28;20018;-78
2024/04/01 12:02:56;;;;;;;68.30;9.70;;;;;;;28.86;14.44;93719.31;5043987;28;20101;-78